Rockport, Texas
Current Conditions -  °F | °C
As of 9:53 PM on Sunday 25 Jan 2015 (Local Time) from KRKP Reporting Station
Clear Clear  
Wind Chill: 56°   Ceiling: Unl
Heat Index: 56°   Visibility: 10mi
Dew Point: 42°   Wind: 7mph
Humidity: 60%   Direction: 290°WNW
Pressure: 30.17"   Gusts: NA
Location:  28.01°N, 97.06°W
Report Text: KRKP 260353Z AUTO 29006KT 10SM CLR 13/06 A3017 RMK AO2 SLP219 T01330056 $
Loading
Personal Weather Stations






























Interactive Weather Map New forecast layout! Learn more

10-Day Weather Forecast

Advertisements
Track Severe Weather on mobile